Airport View

Enter AWOS ICAO identifier for current METAR.

ex. KFNL

KATW 171150Z AUTO 17010KT 10SM OVC100 00/M04 A3000 RMK AO2

17 Nov 2019 11:55

Phone: 920-832-2597

Other Area AWOS: KOSH - KGRB - KPCZ - KCLI

TAF KATW 170520Z 1706/1806 17007KT P6SM BKN150 FM170900 17008KT P6SM OVC100 FM171600 18008KT P6SM BKN008 OVC070 FM171800 20007KT 4SM -RASN BKN008 FM172300 22006KT 5SM BR BKN007